createdAt,value
2017-09-07T00:00:10.407Z,17.38
2017-09-07T00:02:36.843Z,17.28
2017-09-07T00:05:03.481Z,17.25
2017-09-07T00:07:29.917Z,17.26
2017-09-07T00:09:56.350Z,17.25
2017-09-07T00:12:22.785Z,17.33
2017-09-07T00:14:49.220Z,17.42
2017-09-07T00:17:16.473Z,17.46
2017-09-07T00:19:42.908Z,17.32
2017-09-07T00:22:09.344Z,17.29
2017-09-07T00:24:35.778Z,17.31
2017-09-07T00:27:02.193Z,17.34
2017-09-07T00:29:28.648Z,17.26
2017-09-07T00:31:55.083Z,17.26
2017-09-07T00:34:22.334Z,17.14
2017-09-07T00:36:48.772Z,17.01
2017-09-07T00:39:15.207Z,16.89
2017-09-07T00:41:41.672Z,16.97
2017-09-07T00:46:34.412Z,17.14
2017-09-07T00:49:00.949Z,17.23
2017-09-07T00:51:27.948Z,17.17
2017-09-07T00:53:54.436Z,17.10
2017-09-07T00:56:20.867Z,17.11
2017-09-07T00:58:47.303Z,17.13
2017-09-07T01:01:13.735Z,17.13
2017-09-07T01:03:40.173Z,17.12
2017-09-07T01:06:06.605Z,17.01
2017-09-07T01:08:33.760Z,16.84
2017-09-07T01:11:00.192Z,16.70
2017-09-07T01:13:26.626Z,16.62
2017-09-07T01:15:53.061Z,16.64
2017-09-07T01:18:19.495Z,16.58
2017-09-07T01:20:45.929Z,16.50
2017-09-07T01:23:12.374Z,16.43
2017-09-07T01:25:39.619Z,16.41
2017-09-07T01:28:06.056Z,16.43
2017-09-07T01:30:32.491Z,16.52
2017-09-07T01:32:58.914Z,16.62
2017-09-07T01:35:25.355Z,16.68
2017-09-07T01:37:51.794Z,16.57
2017-09-07T01:40:18.230Z,16.55
2017-09-07T01:42:45.480Z,16.62
2017-09-07T01:45:12.126Z,16.71
2017-09-07T01:47:38.561Z,16.65
2017-09-07T01:50:05.096Z,16.53
2017-09-07T01:52:31.635Z,16.44
2017-09-07T01:54:58.066Z,16.39
2017-09-07T01:57:24.502Z,16.40
2017-09-07T01:59:51.754Z,16.43
2017-09-07T02:02:18.191Z,16.51
2017-09-07T02:04:44.627Z,16.53
2017-09-07T02:07:11.165Z,16.51
2017-09-07T02:09:37.597Z,16.45
2017-09-07T02:12:04.033Z,16.39
2017-09-07T02:14:30.464Z,16.38
2017-09-07T02:16:57.721Z,16.44
2017-09-07T02:19:24.156Z,16.48
2017-09-07T02:21:50.594Z,16.44
2017-09-07T02:24:17.027Z,16.31
2017-09-07T02:26:43.460Z,16.28
2017-09-07T02:29:09.896Z,16.25
2017-09-07T02:31:36.432Z,16.20
2017-09-07T02:34:03.689Z,16.13
2017-09-07T02:36:30.122Z,16.19
2017-09-07T02:38:56.557Z,16.27
2017-09-07T02:41:22.992Z,16.27
2017-09-07T02:43:49.427Z,16.18
2017-09-07T02:46:15.861Z,16.05
2017-09-07T02:48:42.297Z,16.10
2017-09-07T02:51:09.449Z,16.09
2017-09-07T02:53:35.880Z,16.12
2017-09-07T02:56:02.318Z,16.18
2017-09-07T02:58:28.753Z,16.24
2017-09-07T03:03:51.909Z,16.15
2017-09-07T03:06:18.371Z,16.17
2017-09-07T03:08:44.806Z,16.18
2017-09-07T03:11:11.345Z,16.18
2017-09-07T03:13:37.778Z,16.20
2017-09-07T03:16:04.210Z,16.23
2017-09-07T03:18:30.647Z,16.12
2017-09-07T03:20:57.080Z,16.06
2017-09-07T03:23:23.516Z,16.05
2017-09-07T03:25:49.912Z,16.02
2017-09-07T03:28:16.384Z,15.91
2017-09-07T03:30:42.782Z,15.82
2017-09-07T03:33:09.242Z,15.74
2017-09-07T03:35:35.686Z,15.84
2017-09-07T03:38:02.132Z,15.95
2017-09-07T03:40:28.558Z,15.96
2017-09-07T03:42:55.096Z,15.99
2017-09-07T03:45:21.529Z,16.00
2017-09-07T03:47:47.920Z,15.95
2017-09-07T03:50:14.391Z,15.94
2017-09-07T03:52:40.835Z,15.87
2017-09-07T03:55:07.371Z,15.74
2017-09-07T03:57:33.808Z,15.65
2017-09-07T04:00:00.243Z,15.68
2017-09-07T04:02:26.626Z,15.79
2017-09-07T04:04:53.093Z,15.74
2017-09-07T04:07:20.261Z,15.84
2017-09-07T04:09:46.700Z,15.88
2017-09-07T04:12:13.133Z,15.97
2017-09-07T04:14:39.569Z,16.01
2017-09-07T04:17:06.004Z,16.06
2017-09-07T04:19:32.438Z,16.14
2017-09-07T04:21:58.870Z,16.22
2017-09-07T04:24:26.127Z,16.22
2017-09-07T04:26:52.563Z,16.36
2017-09-07T04:29:19.099Z,16.46
2017-09-07T04:31:45.537Z,16.51
2017-09-07T04:34:11.924Z,16.55
2017-09-07T04:36:38.444Z,16.57
2017-09-07T04:39:04.941Z,16.56
2017-09-07T04:41:32.092Z,16.50
2017-09-07T04:43:58.528Z,16.53
2017-09-07T04:46:25.065Z,16.47
2017-09-07T04:48:51.503Z,16.50
2017-09-07T04:51:17.887Z,16.58
2017-09-07T04:53:44.369Z,16.67
2017-09-07T04:56:10.803Z,16.76
2017-09-07T04:58:37.342Z,16.83
2017-09-07T05:01:03.802Z,16.89
2017-09-07T05:03:30.212Z,16.96
2017-09-07T05:05:56.647Z,17.04
2017-09-07T05:08:23.081Z,17.14
2017-09-07T05:10:49.515Z,17.23
2017-09-07T05:13:15.904Z,17.33
2017-09-07T05:15:43.102Z,17.42
2017-09-07T05:18:09.537Z,17.53
2017-09-07T05:20:35.922Z,17.63
2017-09-07T05:23:02.407Z,17.70
2017-09-07T05:25:28.842Z,17.80
2017-09-07T05:27:55.382Z,17.84
2017-09-07T05:30:21.813Z,17.92
2017-09-07T05:32:49.069Z,18.07
2017-09-07T05:35:15.490Z,18.18
2017-09-07T05:37:41.895Z,18.32
2017-09-07T05:40:08.372Z,18.42
2017-09-07T05:42:34.809Z,18.60
2017-09-07T05:45:01.351Z,18.77
2017-09-07T05:47:27.783Z,18.87
2017-09-07T05:49:55.034Z,19.02
2017-09-07T05:52:21.470Z,19.17
2017-09-07T05:54:47.904Z,19.32
2017-09-07T05:57:14.543Z,19.47
2017-09-07T05:59:41.081Z,19.57
2017-09-07T06:02:07.516Z,19.67
2017-09-07T06:04:34.360Z,19.82
2017-09-07T06:07:01.522Z,19.92
2017-09-07T06:09:28.152Z,20.04
2017-09-07T06:11:54.589Z,20.13
2017-09-07T06:14:21.433Z,20.24
2017-09-07T06:16:48.071Z,20.25
2017-09-07T06:19:14.505Z,20.26
2017-09-07T06:21:40.939Z,20.40
2017-09-07T06:24:07.367Z,20.53
2017-09-07T06:26:33.963Z,20.67
2017-09-07T06:29:00.450Z,20.83
2017-09-07T06:31:27.089Z,20.92
2017-09-07T06:33:53.527Z,21.05
2017-09-07T06:36:19.912Z,21.21
2017-09-07T06:38:46.394Z,21.38
2017-09-07T06:41:12.934Z,21.50
2017-09-07T06:43:39.320Z,21.68
2017-09-07T06:46:05.801Z,21.82
2017-09-07T06:48:32.241Z,21.99
2017-09-07T06:50:58.774Z,22.10
2017-09-07T06:53:25.617Z,22.17
2017-09-07T06:55:52.052Z,22.17
2017-09-07T06:58:18.486Z,22.25
2017-09-07T07:00:45.024Z,22.43
2017-09-07T07:03:11.665Z,22.64
2017-09-07T07:05:38.101Z,22.76
2017-09-07T07:08:04.533Z,22.88
2017-09-07T07:10:31.377Z,23.03
2017-09-07T07:12:57.916Z,23.13
2017-09-07T07:15:24.339Z,23.21
2017-09-07T07:17:50.785Z,23.35
2017-09-07T07:20:17.322Z,23.55
2017-09-07T07:22:44.035Z,23.69
2017-09-07T07:25:11.530Z,23.76
2017-09-07T07:27:38.585Z,23.81
2017-09-07T07:30:05.522Z,23.92
2017-09-07T07:32:31.908Z,24.07
2017-09-07T07:34:58.390Z,24.18
2017-09-07T07:37:25.233Z,24.14
2017-09-07T07:39:51.669Z,24.27
2017-09-07T07:42:18.103Z,24.42
2017-09-07T07:44:44.846Z,24.56
2017-09-07T07:47:11.281Z,24.65
2017-09-07T07:49:37.818Z,24.84
2017-09-07T07:52:04.560Z,24.96
2017-09-07T07:54:31.148Z,25.09
2017-09-07T07:56:58.351Z,25.21
2017-09-07T07:59:25.401Z,25.23
2017-09-07T08:01:51.836Z,25.31
2017-09-07T08:04:18.271Z,25.38
2017-09-07T08:06:45.012Z,25.38
2017-09-07T08:09:11.448Z,25.54
2017-09-07T08:11:37.935Z,25.62
2017-09-07T08:14:04.624Z,25.62
2017-09-07T08:16:31.059Z,25.58
2017-09-07T08:18:57.494Z,25.65
2017-09-07T08:21:24.441Z,25.84
2017-09-07T08:23:51.084Z,26.01
2017-09-07T08:26:17.618Z,26.00
2017-09-07T08:28:44.547Z,26.11
2017-09-07T08:31:11.105Z,26.29
2017-09-07T08:33:37.537Z,26.42
2017-09-07T08:36:04.381Z,26.33
2017-09-07T08:38:30.818Z,26.36
2017-09-07T08:40:57.336Z,26.46
2017-09-07T08:43:23.780Z,26.49
2017-09-07T08:45:50.223Z,26.47
2017-09-07T08:48:16.657Z,26.56
2017-09-07T08:50:43.144Z,26.48
2017-09-07T08:53:09.629Z,26.58
2017-09-07T08:55:36.068Z,26.79
2017-09-07T08:58:03.783Z,26.83
2017-09-07T09:00:30.164Z,26.81
2017-09-07T09:02:56.601Z,26.77
2017-09-07T09:05:23.016Z,26.76
2017-09-07T09:07:49.471Z,26.77
2017-09-07T09:10:15.956Z,27.03
2017-09-07T09:12:42.338Z,27.01
2017-09-07T09:15:08.775Z,27.03
2017-09-07T09:17:35.205Z,27.10
2017-09-07T09:20:01.745Z,27.17
2017-09-07T09:22:28.181Z,27.20
2017-09-07T09:24:55.025Z,27.15
2017-09-07T09:27:21.460Z,27.23
2017-09-07T09:29:47.948Z,27.30
2017-09-07T09:32:14.431Z,27.39
2017-09-07T09:34:40.867Z,27.51
2017-09-07T09:37:07.609Z,27.52
2017-09-07T09:39:34.143Z,27.40
2017-09-07T09:42:00.583Z,27.46
2017-09-07T09:44:27.016Z,27.48
2017-09-07T09:46:53.450Z,27.51
2017-09-07T09:49:20.913Z,27.53
2017-09-07T09:51:47.652Z,27.48
2017-09-07T09:54:14.086Z,27.53
2017-09-07T09:56:40.521Z,27.56
2017-09-07T09:59:07.163Z,27.65
2017-09-07T10:01:33.599Z,27.70
2017-09-07T10:04:00.440Z,27.79
2017-09-07T10:06:26.977Z,27.83
2017-09-07T10:08:53.412Z,27.86
2017-09-07T10:11:20.160Z,27.92
2017-09-07T10:13:46.597Z,27.95
2017-09-07T10:16:13.128Z,27.95
2017-09-07T10:18:39.920Z,28.15
2017-09-07T10:21:06.407Z,28.27
2017-09-07T10:23:32.843Z,28.18
2017-09-07T10:25:59.587Z,28.17
2017-09-07T10:28:26.022Z,28.17
2017-09-07T10:30:52.556Z,28.29
2017-09-07T10:33:18.991Z,28.45
2017-09-07T10:35:45.631Z,28.51
2017-09-07T10:38:12.064Z,28.54
2017-09-07T10:40:38.704Z,28.40
2017-09-07T10:43:05.449Z,28.65
2017-09-07T10:45:31.882Z,28.76
2017-09-07T10:47:58.322Z,28.74
2017-09-07T10:50:24.861Z,28.41
2017-09-07T10:52:51.905Z,28.24
2017-09-07T10:55:18.334Z,28.44
2017-09-07T10:57:44.772Z,28.53
2017-09-07T11:00:11.613Z,28.49
2017-09-07T11:02:38.048Z,28.65
2017-09-07T11:05:04.482Z,28.78
2017-09-07T11:07:31.325Z,28.97
2017-09-07T11:09:57.761Z,28.91
2017-09-07T11:12:24.198Z,28.92
2017-09-07T11:14:50.836Z,29.13
2017-09-07T11:17:17.273Z,29.26
2017-09-07T11:19:44.523Z,29.43
2017-09-07T11:22:10.960Z,29.72
2017-09-07T11:24:37.394Z,30.03
2017-09-07T11:27:03.832Z,30.38
2017-09-07T11:29:30.261Z,30.71
2017-09-07T11:31:57.109Z,31.33
2017-09-07T11:34:23.543Z,31.85
2017-09-07T11:36:49.927Z,32.27
2017-09-07T11:39:16.392Z,33.06
2017-09-07T11:41:42.849Z,33.93
2017-09-07T11:44:09.824Z,34.22
2017-09-07T11:46:36.742Z,34.55
2017-09-07T11:49:03.279Z,35.24
2017-09-07T11:51:30.112Z,35.40
2017-09-07T11:53:56.560Z,35.91
2017-09-07T11:56:23.298Z,36.80
2017-09-07T11:58:49.733Z,37.05
2017-09-07T12:01:16.785Z,37.36
2017-09-07T12:03:44.142Z,37.85
2017-09-07T12:06:10.676Z,38.03
2017-09-07T12:08:38.192Z,38.13
2017-09-07T12:11:04.754Z,38.28
2017-09-07T12:13:31.572Z,38.33
2017-09-07T12:15:58.037Z,38.72
2017-09-07T12:18:24.798Z,39.32
2017-09-07T12:20:51.747Z,39.93
2017-09-07T12:23:18.284Z,39.86
2017-09-07T12:25:45.058Z,40.33
2017-09-07T12:28:11.666Z,40.69
2017-09-07T12:30:38.205Z,40.61
2017-09-07T12:33:04.820Z,40.01
2017-09-07T12:35:31.264Z,39.46
2017-09-07T12:37:57.722Z,39.25
2017-09-07T12:40:25.140Z,39.15
2017-09-07T12:42:51.606Z,39.56
2017-09-07T12:45:18.042Z,40.07
2017-09-07T12:47:44.779Z,40.28
2017-09-07T12:50:11.217Z,39.86
2017-09-07T12:52:37.653Z,40.03
2017-09-07T12:55:04.501Z,40.86
2017-09-07T12:57:31.652Z,41.47
2017-09-07T12:59:58.548Z,40.91
2017-09-07T13:02:25.338Z,40.97
2017-09-07T13:04:51.976Z,41.92
2017-09-07T13:07:18.411Z,42.18
2017-09-07T13:09:45.256Z,42.17
2017-09-07T13:12:11.691Z,42.74
2017-09-07T13:14:38.128Z,42.58
2017-09-07T13:17:04.948Z,42.59
2017-09-07T13:19:31.507Z,42.74
2017-09-07T13:21:57.892Z,42.80
2017-09-07T13:24:24.787Z,43.20
2017-09-07T13:26:51.221Z,43.51
2017-09-07T13:29:17.656Z,43.26
2017-09-07T13:31:44.500Z,43.45
2017-09-07T13:34:11.071Z,44.04
2017-09-07T13:36:38.090Z,44.16
2017-09-07T13:39:04.781Z,43.45
2017-09-07T13:41:31.469Z,43.82
2017-09-07T13:43:57.855Z,44.30
2017-09-07T13:46:25.056Z,43.93
2017-09-07T13:48:52.625Z,43.77
2017-09-07T13:51:19.258Z,43.95
2017-09-07T13:53:46.298Z,43.33
2017-09-07T13:56:12.741Z,43.34
2017-09-07T13:58:39.279Z,42.99
2017-09-07T14:01:05.868Z,43.49
2017-09-07T14:03:32.447Z,43.99
2017-09-07T14:05:58.963Z,43.93
2017-09-07T14:08:25.843Z,43.17
2017-09-07T14:10:52.376Z,43.34
2017-09-07T14:13:18.809Z,43.04
2017-09-07T14:15:46.372Z,42.92
2017-09-07T14:18:12.808Z,43.19
2017-09-07T14:20:39.351Z,43.48
2017-09-07T14:23:05.985Z,42.45
2017-09-07T14:25:32.418Z,40.53
2017-09-07T14:27:58.853Z,38.86
2017-09-07T14:30:25.493Z,37.48
2017-09-07T14:32:51.838Z,36.08
2017-09-07T14:35:18.259Z,34.88
2017-09-07T14:37:44.698Z,34.19
2017-09-07T14:40:11.233Z,33.75
2017-09-07T14:42:38.591Z,33.23
2017-09-07T14:45:05.024Z,32.96
2017-09-07T14:47:31.555Z,32.56
2017-09-07T14:49:58.302Z,32.14
2017-09-07T14:52:25.044Z,31.79
2017-09-07T14:54:51.592Z,31.67
2017-09-07T14:57:18.528Z,31.65
2017-09-07T14:59:45.068Z,31.57
2017-09-07T15:02:11.497Z,31.51
2017-09-07T15:04:37.876Z,31.34
2017-09-07T15:07:04.267Z,31.25
2017-09-07T15:09:30.805Z,31.17
2017-09-07T15:11:57.240Z,31.01
2017-09-07T15:14:23.675Z,31.03
2017-09-07T15:16:50.109Z,31.07
2017-09-07T15:19:16.545Z,30.87
2017-09-07T15:21:42.932Z,30.66
2017-09-07T15:24:10.235Z,30.62
2017-09-07T15:26:36.669Z,30.36
2017-09-07T15:29:03.206Z,30.27
2017-09-07T15:31:29.640Z,30.20
2017-09-07T15:33:56.070Z,30.11
2017-09-07T15:36:22.512Z,30.09
2017-09-07T15:38:48.944Z,29.94
2017-09-07T15:41:16.097Z,29.95
2017-09-07T15:43:42.531Z,29.89
2017-09-07T15:46:08.969Z,29.85
2017-09-07T15:48:35.377Z,29.80
2017-09-07T15:51:01.797Z,29.77
2017-09-07T15:53:28.263Z,29.61
2017-09-07T15:55:54.706Z,29.55
2017-09-07T15:58:21.960Z,29.47
2017-09-07T16:00:48.394Z,29.34
2017-09-07T16:03:14.829Z,29.23
2017-09-07T16:05:41.267Z,29.16
2017-09-07T16:08:07.703Z,29.06
2017-09-07T16:10:34.138Z,28.88
2017-09-07T16:13:00.487Z,28.66
2017-09-07T16:15:27.721Z,28.61
2017-09-07T16:17:54.156Z,28.51
2017-09-07T16:20:20.591Z,28.40
2017-09-07T16:22:47.025Z,28.32
2017-09-07T16:25:13.448Z,28.29
2017-09-07T16:27:39.895Z,28.25
2017-09-07T16:30:06.331Z,28.13
2017-09-07T16:32:33.484Z,28.01
2017-09-07T16:34:59.916Z,27.85
2017-09-07T16:37:26.352Z,27.71
2017-09-07T16:39:52.786Z,27.65
2017-09-07T16:42:19.222Z,27.57
2017-09-07T16:44:45.656Z,27.50
2017-09-07T16:47:12.093Z,27.39
2017-09-07T16:49:39.242Z,27.30
2017-09-07T16:52:05.676Z,27.24
2017-09-07T16:54:32.113Z,27.21
2017-09-07T16:56:58.548Z,27.08
2017-09-07T16:59:24.983Z,26.93
2017-09-07T17:01:51.417Z,26.87
2017-09-07T17:04:17.804Z,26.77
2017-09-07T17:06:44.949Z,26.70
2017-09-07T17:09:11.440Z,26.63
2017-09-07T17:11:37.829Z,26.56
2017-09-07T17:14:04.206Z,26.48
2017-09-07T17:16:30.641Z,26.38
2017-09-07T17:18:57.178Z,26.26
2017-09-07T17:21:23.613Z,26.20
2017-09-07T17:23:50.656Z,26.15
2017-09-07T17:26:17.097Z,26.09
2017-09-07T17:28:43.531Z,26.00
2017-09-07T17:31:09.967Z,25.90
2017-09-07T17:33:36.401Z,25.80
2017-09-07T17:36:02.837Z,25.74
2017-09-07T17:38:29.270Z,25.71
2017-09-07T17:40:56.424Z,25.64
2017-09-07T17:43:22.859Z,25.59
2017-09-07T17:45:49.293Z,25.48
2017-09-07T17:48:15.728Z,25.39
2017-09-07T17:50:42.164Z,25.35
2017-09-07T17:53:08.598Z,25.22
2017-09-07T17:55:35.035Z,25.15
2017-09-07T17:58:02.178Z,25.09
2017-09-07T18:00:28.619Z,25.01
2017-09-07T18:02:55.053Z,25.01
2017-09-07T18:05:21.489Z,24.97
2017-09-07T18:07:47.923Z,24.92
2017-09-07T18:10:14.359Z,24.92
2017-09-07T18:12:40.793Z,24.88
2017-09-07T18:15:07.945Z,24.70
2017-09-07T18:17:34.380Z,24.60
2017-09-07T18:20:00.915Z,24.54
2017-09-07T18:22:27.352Z,24.45
2017-09-07T18:24:53.789Z,24.34
2017-09-07T18:27:20.221Z,24.33
2017-09-07T18:29:46.657Z,24.25
2017-09-07T18:32:13.911Z,24.22
2017-09-07T18:34:40.346Z,24.13
2017-09-07T18:37:06.780Z,24.16
2017-09-07T18:39:33.215Z,24.14
2017-09-07T18:41:59.650Z,24.10
2017-09-07T18:44:26.085Z,23.96
2017-09-07T18:46:52.520Z,23.83
2017-09-07T18:49:19.775Z,23.75
2017-09-07T18:51:46.209Z,23.69
2017-09-07T18:54:12.645Z,23.71
2017-09-07T18:56:39.181Z,23.64
2017-09-07T18:59:05.616Z,23.48
2017-09-07T19:01:32.042Z,23.41
2017-09-07T19:03:58.486Z,23.32
2017-09-07T19:06:25.640Z,23.31
2017-09-07T19:08:52.075Z,23.28
2017-09-07T19:11:18.512Z,23.32
2017-09-07T19:13:44.943Z,23.30
2017-09-07T19:16:11.376Z,23.35
2017-09-07T19:18:37.778Z,23.24
2017-09-07T19:21:04.249Z,23.11
2017-09-07T19:23:31.401Z,22.96
2017-09-07T19:25:57.788Z,22.88
2017-09-07T19:28:24.271Z,22.84
2017-09-07T19:30:50.658Z,22.87
2017-09-07T19:33:17.139Z,22.79
2017-09-07T19:35:43.573Z,22.74
2017-09-07T19:38:10.010Z,22.75
2017-09-07T19:40:37.159Z,22.68
2017-09-07T19:43:03.597Z,22.65
2017-09-07T19:45:30.030Z,22.62
2017-09-07T19:47:56.465Z,22.64
2017-09-07T19:50:22.899Z,22.60
2017-09-07T19:52:49.315Z,22.50
2017-09-07T19:55:15.761Z,22.38
2017-09-07T19:57:42.923Z,22.27
2017-09-07T20:00:09.357Z,22.22
2017-09-07T20:02:35.739Z,22.27
2017-09-07T20:05:02.228Z,22.29
2017-09-07T20:07:28.661Z,22.28
2017-09-07T20:09:55.095Z,22.19
2017-09-07T20:12:21.530Z,22.08
2017-09-07T20:14:48.682Z,21.97
2017-09-07T20:17:15.118Z,21.92
2017-09-07T20:19:41.552Z,21.93
2017-09-07T20:22:07.990Z,21.93
2017-09-07T20:24:34.421Z,21.93
2017-09-07T20:27:00.955Z,21.92
2017-09-07T20:29:27.394Z,21.82
2017-09-07T20:31:54.648Z,21.72
2017-09-07T20:34:21.083Z,21.72
2017-09-07T20:36:47.516Z,21.66
2017-09-07T20:39:14.055Z,21.57
2017-09-07T20:41:40.489Z,21.55
2017-09-07T20:44:06.924Z,21.55
2017-09-07T20:46:33.359Z,21.51
2017-09-07T20:49:00.613Z,21.49
2017-09-07T20:51:27.140Z,21.40
2017-09-07T20:53:53.585Z,21.32
2017-09-07T20:56:20.020Z,21.32
2017-09-07T20:58:46.455Z,21.30
2017-09-07T21:01:12.890Z,21.31
2017-09-07T21:03:39.325Z,21.35
2017-09-07T21:06:06.482Z,21.21
2017-09-07T21:08:32.913Z,21.03
2017-09-07T21:10:59.346Z,21.03
2017-09-07T21:13:25.732Z,21.03
2017-09-07T21:15:52.192Z,20.94
2017-09-07T21:18:18.649Z,20.97
2017-09-07T21:20:45.085Z,21.04
2017-09-07T21:23:12.377Z,21.09
2017-09-07T21:25:38.869Z,21.12
2017-09-07T21:28:05.306Z,21.15
2017-09-07T21:30:31.749Z,21.10
2017-09-07T21:32:58.185Z,21.10
2017-09-07T21:35:24.618Z,21.06
2017-09-07T21:37:51.048Z,21.09
2017-09-07T21:40:18.305Z,21.05
2017-09-07T21:42:44.743Z,21.04
2017-09-07T21:45:11.175Z,20.95
2017-09-07T21:47:37.610Z,20.96
2017-09-07T21:50:04.045Z,20.83
2017-09-07T21:52:30.479Z,20.74
2017-09-07T21:54:56.922Z,20.74
2017-09-07T21:57:24.067Z,20.74
2017-09-07T21:59:50.501Z,20.74
2017-09-07T22:02:16.936Z,20.57
2017-09-07T22:04:43.368Z,20.37
2017-09-07T22:07:09.760Z,20.32
2017-09-07T22:09:36.231Z,20.30
2017-09-07T22:12:02.676Z,20.29
2017-09-07T22:14:29.826Z,20.32
2017-09-07T22:16:56.262Z,20.32
2017-09-07T22:19:22.698Z,20.29
2017-09-07T22:21:49.132Z,20.14
2017-09-07T22:24:15.567Z,20.08
2017-09-07T22:26:42.002Z,20.12
2017-09-07T22:29:08.444Z,20.16
2017-09-07T22:31:35.693Z,20.16
2017-09-07T22:34:02.127Z,20.16
2017-09-07T22:36:28.557Z,20.03
2017-09-07T22:38:54.998Z,20.01
2017-09-07T22:41:21.429Z,20.06
2017-09-07T22:43:47.864Z,20.07
2017-09-07T22:46:14.300Z,19.97
2017-09-07T22:48:41.549Z,19.96
2017-09-07T22:51:07.989Z,19.99
2017-09-07T22:53:34.432Z,19.92
2017-09-07T22:56:00.859Z,19.90
2017-09-07T22:58:27.291Z,19.77
2017-09-07T23:00:53.729Z,19.65
2017-09-07T23:03:20.164Z,19.73
2017-09-07T23:05:47.317Z,19.73
2017-09-07T23:08:13.705Z,19.70
2017-09-07T23:10:40.186Z,19.66
2017-09-07T23:13:06.620Z,19.62
2017-09-07T23:15:33.159Z,19.66
2017-09-07T23:17:59.575Z,19.63
2017-09-07T23:20:26.018Z,19.61
2017-09-07T23:22:53.178Z,19.57
2017-09-07T23:25:19.605Z,19.57
2017-09-07T23:27:46.019Z,19.47
2017-09-07T23:30:12.482Z,19.49
2017-09-07T23:32:38.917Z,19.50
2017-09-07T23:35:05.354Z,19.49
2017-09-07T23:37:31.729Z,19.44
2017-09-07T23:39:58.939Z,19.39
2017-09-07T23:42:25.375Z,19.34
2017-09-07T23:44:51.809Z,19.26
2017-09-07T23:47:18.244Z,19.26
2017-09-07T23:49:44.678Z,19.23
2017-09-07T23:52:11.114Z,19.24
2017-09-07T23:54:37.548Z,19.18
2017-09-07T23:57:04.703Z,19.25
2017-09-07T23:59:31.139Z,19.31
